sensor_id;sensor_type;location;lat;lon;timestamp;temperature;humidity
6841;DHT22;3458;53.678;14.080;2023-05-16T00:01:17;15.30;99.90
6841;DHT22;3458;53.678;14.080;2023-05-16T00:03:42;15.30;99.90
6841;DHT22;3458;53.678;14.080;2023-05-16T00:06:08;15.30;99.90
6841;DHT22;3458;53.678;14.080;2023-05-16T00:08:34;15.20;99.90
6841;DHT22;3458;53.678;14.080;2023-05-16T00:11:00;15.20;99.90
6841;DHT22;3458;53.678;14.080;2023-05-16T00:13:26;15.20;99.90
6841;DHT22;3458;53.678;14.080;2023-05-16T00:15:53;15.20;99.90
6841;DHT22;3458;53.678;14.080;2023-05-16T00:18:20;15.20;99.90
6841;DHT22;3458;53.678;14.080;2023-05-16T00:20:48;15.10;99.90
6841;DHT22;3458;53.678;14.080;2023-05-16T00:23:14;15.10;99.90
6841;DHT22;3458;53.678;14.080;2023-05-16T00:25:39;15.10;99.90
6841;DHT22;3458;53.678;14.080;2023-05-16T00:28:06;15.10;99.90
6841;DHT22;3458;53.678;14.080;2023-05-16T00:30:31;15.10;99.90
6841;DHT22;3458;53.678;14.080;2023-05-16T00:32:57;15.00;99.90
6841;DHT22;3458;53.678;14.080;2023-05-16T00:35:22;14.90;99.90
6841;DHT22;3458;53.678;14.080;2023-05-16T00:37:49;14.90;99.90
6841;DHT22;3458;53.678;14.080;2023-05-16T00:40:15;14.90;99.90
6841;DHT22;3458;53.678;14.080;2023-05-16T00:42:41;14.90;99.90
6841;DHT22;3458;53.678;14.080;2023-05-16T00:45:07;14.90;99.90
6841;DHT22;3458;53.678;14.080;2023-05-16T00:47:33;14.80;99.90
6841;DHT22;3458;53.678;14.080;2023-05-16T00:49:58;14.90;99.90
6841;DHT22;3458;53.678;14.080;2023-05-16T00:52:24;14.90;99.90
6841;DHT22;3458;53.678;14.080;2023-05-16T00:54:50;14.90;99.90
6841;DHT22;3458;53.678;14.080;2023-05-16T00:57:16;14.90;99.90
6841;DHT22;3458;53.678;14.080;2023-05-16T00:59:44;15.00;99.90
6841;DHT22;3458;53.678;14.080;2023-05-16T01:02:10;15.00;99.90
6841;DHT22;3458;53.678;14.080;2023-05-16T01:04:37;15.00;99.90
6841;DHT22;3458;53.678;14.080;2023-05-16T01:07:02;15.00;99.90
6841;DHT22;3458;53.678;14.080;2023-05-16T01:09:28;15.00;99.90
6841;DHT22;3458;53.678;14.080;2023-05-16T01:12:08;15.00;99.90
6841;DHT22;3458;53.678;14.080;2023-05-16T01:15:04;15.00;99.90
6841;DHT22;3458;53.678;14.080;2023-05-16T01:28:10;14.90;99.90
6841;DHT22;3458;53.678;14.080;2023-05-16T01:30:39;14.80;99.90
6841;DHT22;3458;53.678;14.080;2023-05-16T01:33:05;14.80;99.90
6841;DHT22;3458;53.678;14.080;2023-05-16T01:35:31;14.80;99.90
6841;DHT22;3458;53.678;14.080;2023-05-16T01:38:10;14.80;99.90
6841;DHT22;3458;53.678;14.080;2023-05-16T01:40:47;14.80;99.90
6841;DHT22;3458;53.678;14.080;2023-05-16T01:43:24;14.80;99.90
6841;DHT22;3458;53.678;14.080;2023-05-16T01:46:01;14.80;99.90
6841;DHT22;3458;53.678;14.080;2023-05-16T01:48:34;14.80;99.90
6841;DHT22;3458;53.678;14.080;2023-05-16T01:51:01;14.80;99.90
6841;DHT22;3458;53.678;14.080;2023-05-16T01:53:37;14.70;99.90
6841;DHT22;3458;53.678;14.080;2023-05-16T01:56:04;14.70;99.90
6841;DHT22;3458;53.678;14.080;2023-05-16T01:58:33;14.70;99.90
6841;DHT22;3458;53.678;14.080;2023-05-16T02:01:03;14.70;99.90
6841;DHT22;3458;53.678;14.080;2023-05-16T02:03:30;14.70;99.90
6841;DHT22;3458;53.678;14.080;2023-05-16T02:05:56;14.70;99.90
6841;DHT22;3458;53.678;14.080;2023-05-16T02:08:23;14.60;99.90
6841;DHT22;3458;53.678;14.080;2023-05-16T02:10:49;14.60;99.90
6841;DHT22;3458;53.678;14.080;2023-05-16T02:13:15;14.60;99.90
6841;DHT22;3458;53.678;14.080;2023-05-16T02:15:41;14.60;99.90
6841;DHT22;3458;53.678;14.080;2023-05-16T02:18:06;14.60;99.90
6841;DHT22;3458;53.678;14.080;2023-05-16T02:20:32;14.50;99.90
6841;DHT22;3458;53.678;14.080;2023-05-16T02:22:57;14.50;99.90
6841;DHT22;3458;53.678;14.080;2023-05-16T02:25:23;14.50;99.90
6841;DHT22;3458;53.678;14.080;2023-05-16T02:27:48;14.50;99.90
6841;DHT22;3458;53.678;14.080;2023-05-16T02:30:14;14.40;99.90
6841;DHT22;3458;53.678;14.080;2023-05-16T02:32:40;14.40;99.90
6841;DHT22;3458;53.678;14.080;2023-05-16T02:35:05;14.30;99.90
6841;DHT22;3458;53.678;14.080;2023-05-16T02:37:32;14.30;99.90
6841;DHT22;3458;53.678;14.080;2023-05-16T02:39:58;14.30;99.90
6841;DHT22;3458;53.678;14.080;2023-05-16T02:42:25;14.20;99.90
6841;DHT22;3458;53.678;14.080;2023-05-16T02:44:51;14.10;99.90
6841;DHT22;3458;53.678;14.080;2023-05-16T02:47:17;14.00;99.90
6841;DHT22;3458;53.678;14.080;2023-05-16T02:49:42;14.00;99.90
6841;DHT22;3458;53.678;14.080;2023-05-16T02:52:08;14.00;99.90
6841;DHT22;3458;53.678;14.080;2023-05-16T02:54:33;14.00;99.90
6841;DHT22;3458;53.678;14.080;2023-05-16T02:56:59;13.90;99.90
6841;DHT22;3458;53.678;14.080;2023-05-16T02:59:25;13.80;99.90
6841;DHT22;3458;53.678;14.080;2023-05-16T03:01:51;13.80;99.90
6841;DHT22;3458;53.678;14.080;2023-05-16T03:04:16;13.80;99.90
6841;DHT22;3458;53.678;14.080;2023-05-16T03:06:42;13.70;99.90
6841;DHT22;3458;53.678;14.080;2023-05-16T03:09:07;13.70;99.90
6841;DHT22;3458;53.678;14.080;2023-05-16T03:11:33;13.60;99.90
6841;DHT22;3458;53.678;14.080;2023-05-16T03:13:58;13.50;99.90
6841;DHT22;3458;53.678;14.080;2023-05-16T03:16:24;13.50;99.90
6841;DHT22;3458;53.678;14.080;2023-05-16T03:18:50;13.50;99.90
6841;DHT22;3458;53.678;14.080;2023-05-16T03:21:15;13.50;99.90
6841;DHT22;3458;53.678;14.080;2023-05-16T03:23:41;13.50;99.90
6841;DHT22;3458;53.678;14.080;2023-05-16T03:26:06;13.60;99.90
6841;DHT22;3458;53.678;14.080;2023-05-16T03:28:32;13.50;99.90
6841;DHT22;3458;53.678;14.080;2023-05-16T03:30:58;13.50;99.90
6841;DHT22;3458;53.678;14.080;2023-05-16T03:33:23;13.40;99.90
6841;DHT22;3458;53.678;14.080;2023-05-16T03:35:48;13.40;99.90
6841;DHT22;3458;53.678;14.080;2023-05-16T03:38:14;13.30;99.90
6841;DHT22;3458;53.678;14.080;2023-05-16T03:40:41;13.20;99.90
6841;DHT22;3458;53.678;14.080;2023-05-16T03:43:06;13.20;99.90
6841;DHT22;3458;53.678;14.080;2023-05-16T03:45:32;13.10;99.90
6841;DHT22;3458;53.678;14.080;2023-05-16T03:47:58;13.10;99.90
6841;DHT22;3458;53.678;14.080;2023-05-16T03:50:23;13.10;99.90
6841;DHT22;3458;53.678;14.080;2023-05-16T03:52:49;13.10;99.90
6841;DHT22;3458;53.678;14.080;2023-05-16T03:55:16;13.20;99.90
6841;DHT22;3458;53.678;14.080;2023-05-16T03:57:43;13.20;99.90
6841;DHT22;3458;53.678;14.080;2023-05-16T04:00:10;13.10;99.90
6841;DHT22;3458;53.678;14.080;2023-05-16T04:02:37;13.00;99.90
6841;DHT22;3458;53.678;14.080;2023-05-16T04:05:04;13.10;99.90
6841;DHT22;3458;53.678;14.080;2023-05-16T04:07:29;13.10;99.90
6841;DHT22;3458;53.678;14.080;2023-05-16T04:09:55;13.10;99.90
6841;DHT22;3458;53.678;14.080;2023-05-16T04:12:22;13.00;99.90
6841;DHT22;3458;53.678;14.080;2023-05-16T04:14:48;13.10;99.90
6841;DHT22;3458;53.678;14.080;2023-05-16T04:17:13;13.20;99.90
6841;DHT22;3458;53.678;14.080;2023-05-16T04:19:39;13.30;99.90
6841;DHT22;3458;53.678;14.080;2023-05-16T04:22:05;13.30;99.90
6841;DHT22;3458;53.678;14.080;2023-05-16T04:24:30;13.30;99.90
6841;DHT22;3458;53.678;14.080;2023-05-16T04:26:56;13.40;99.90
6841;DHT22;3458;53.678;14.080;2023-05-16T04:29:21;13.40;99.90
6841;DHT22;3458;53.678;14.080;2023-05-16T04:31:47;13.40;99.90
6841;DHT22;3458;53.678;14.080;2023-05-16T04:34:13;13.40;99.90
6841;DHT22;3458;53.678;14.080;2023-05-16T04:36:39;13.50;99.90
6841;DHT22;3458;53.678;14.080;2023-05-16T04:39:05;13.50;99.90
6841;DHT22;3458;53.678;14.080;2023-05-16T04:41:31;13.50;99.90
6841;DHT22;3458;53.678;14.080;2023-05-16T04:43:59;13.50;99.90
6841;DHT22;3458;53.678;14.080;2023-05-16T04:46:25;13.40;99.90
6841;DHT22;3458;53.678;14.080;2023-05-16T04:48:50;13.40;99.90
6841;DHT22;3458;53.678;14.080;2023-05-16T04:51:16;13.50;99.90
6841;DHT22;3458;53.678;14.080;2023-05-16T04:53:42;13.60;99.90
6841;DHT22;3458;53.678;14.080;2023-05-16T04:56:07;13.60;99.90
6841;DHT22;3458;53.678;14.080;2023-05-16T04:58:33;13.60;99.90
6841;DHT22;3458;53.678;14.080;2023-05-16T05:00:58;13.50;99.90
6841;DHT22;3458;53.678;14.080;2023-05-16T05:03:24;13.50;99.90
6841;DHT22;3458;53.678;14.080;2023-05-16T05:05:49;13.60;99.90
6841;DHT22;3458;53.678;14.080;2023-05-16T05:08:16;13.60;99.90
6841;DHT22;3458;53.678;14.080;2023-05-16T05:10:42;13.60;99.90
6841;DHT22;3458;53.678;14.080;2023-05-16T05:13:09;13.70;99.90
6841;DHT22;3458;53.678;14.080;2023-05-16T05:15:34;13.60;99.90
6841;DHT22;3458;53.678;14.080;2023-05-16T05:18:00;13.70;99.90
6841;DHT22;3458;53.678;14.080;2023-05-16T05:20:26;13.70;99.90
6841;DHT22;3458;53.678;14.080;2023-05-16T05:22:51;13.70;99.90
6841;DHT22;3458;53.678;14.080;2023-05-16T05:25:17;13.70;99.90
6841;DHT22;3458;53.678;14.080;2023-05-16T05:27:42;13.80;99.90
6841;DHT22;3458;53.678;14.080;2023-05-16T05:30:08;13.90;99.90
6841;DHT22;3458;53.678;14.080;2023-05-16T05:32:34;14.00;99.90
6841;DHT22;3458;53.678;14.080;2023-05-16T05:34:59;13.90;99.90
6841;DHT22;3458;53.678;14.080;2023-05-16T05:37:25;13.90;99.90
6841;DHT22;3458;53.678;14.080;2023-05-16T05:39:51;13.90;99.90
6841;DHT22;3458;53.678;14.080;2023-05-16T05:42:16;13.70;99.90
6841;DHT22;3458;53.678;14.080;2023-05-16T05:44:42;13.70;99.90
6841;DHT22;3458;53.678;14.080;2023-05-16T05:47:08;13.70;99.90
6841;DHT22;3458;53.678;14.080;2023-05-16T05:49:33;13.70;99.90
6841;DHT22;3458;53.678;14.080;2023-05-16T05:52:00;13.80;99.90
6841;DHT22;3458;53.678;14.080;2023-05-16T05:54:25;13.80;99.90
6841;DHT22;3458;53.678;14.080;2023-05-16T05:56:51;13.80;99.90
6841;DHT22;3458;53.678;14.080;2023-05-16T05:59:16;13.70;99.90
6841;DHT22;3458;53.678;14.080;2023-05-16T06:01:42;13.70;99.90
6841;DHT22;3458;53.678;14.080;2023-05-16T06:04:09;13.70;99.90
6841;DHT22;3458;53.678;14.080;2023-05-16T06:06:36;13.70;99.90
6841;DHT22;3458;53.678;14.080;2023-05-16T06:09:01;13.60;99.90
6841;DHT22;3458;53.678;14.080;2023-05-16T06:11:26;13.50;99.90
6841;DHT22;3458;53.678;14.080;2023-05-16T06:13:52;13.50;99.90
6841;DHT22;3458;53.678;14.080;2023-05-16T06:16:17;13.50;99.90
6841;DHT22;3458;53.678;14.080;2023-05-16T06:18:43;13.40;99.90
6841;DHT22;3458;53.678;14.080;2023-05-16T06:21:09;13.40;99.90
6841;DHT22;3458;53.678;14.080;2023-05-16T06:23:34;13.30;99.90
6841;DHT22;3458;53.678;14.080;2023-05-16T06:26:00;13.30;99.90
6841;DHT22;3458;53.678;14.080;2023-05-16T06:28:26;13.30;99.90
6841;DHT22;3458;53.678;14.080;2023-05-16T06:30:51;13.30;99.90
6841;DHT22;3458;53.678;14.080;2023-05-16T06:33:17;13.40;99.90
6841;DHT22;3458;53.678;14.080;2023-05-16T06:35:44;13.40;99.90
6841;DHT22;3458;53.678;14.080;2023-05-16T06:38:09;13.40;99.90
6841;DHT22;3458;53.678;14.080;2023-05-16T06:40:35;13.50;99.90
6841;DHT22;3458;53.678;14.080;2023-05-16T06:43:02;13.50;99.90
6841;DHT22;3458;53.678;14.080;2023-05-16T06:45:28;13.40;99.90
6841;DHT22;3458;53.678;14.080;2023-05-16T06:47:54;13.40;99.90
6841;DHT22;3458;53.678;14.080;2023-05-16T06:50:20;13.30;99.90
6841;DHT22;3458;53.678;14.080;2023-05-16T06:52:45;13.40;99.90
6841;DHT22;3458;53.678;14.080;2023-05-16T06:55:11;13.50;99.90
6841;DHT22;3458;53.678;14.080;2023-05-16T06:57:36;13.50;99.90
6841;DHT22;3458;53.678;14.080;2023-05-16T07:00:02;13.50;99.90
6841;DHT22;3458;53.678;14.080;2023-05-16T07:02:28;13.50;99.90
6841;DHT22;3458;53.678;14.080;2023-05-16T07:04:54;13.40;99.90
6841;DHT22;3458;53.678;14.080;2023-05-16T07:07:19;13.40;99.90
6841;DHT22;3458;53.678;14.080;2023-05-16T07:09:45;13.40;99.90
6841;DHT22;3458;53.678;14.080;2023-05-16T07:12:10;13.30;99.90
6841;DHT22;3458;53.678;14.080;2023-05-16T07:14:36;13.30;99.90
6841;DHT22;3458;53.678;14.080;2023-05-16T07:17:01;13.20;99.90
6841;DHT22;3458;53.678;14.080;2023-05-16T07:19:27;13.20;99.90
6841;DHT22;3458;53.678;14.080;2023-05-16T07:21:53;13.20;99.90
6841;DHT22;3458;53.678;14.080;2023-05-16T07:24:18;13.20;99.90
6841;DHT22;3458;53.678;14.080;2023-05-16T07:26:43;13.20;99.90
6841;DHT22;3458;53.678;14.080;2023-05-16T07:29:09;13.10;99.90
6841;DHT22;3458;53.678;14.080;2023-05-16T07:31:35;13.10;99.90
6841;DHT22;3458;53.678;14.080;2023-05-16T07:34:00;13.10;99.90
6841;DHT22;3458;53.678;14.080;2023-05-16T07:36:26;13.00;99.90
6841;DHT22;3458;53.678;14.080;2023-05-16T07:38:51;13.00;99.90
6841;DHT22;3458;53.678;14.080;2023-05-16T07:41:16;12.90;99.90
6841;DHT22;3458;53.678;14.080;2023-05-16T07:43:42;12.90;99.90
6841;DHT22;3458;53.678;14.080;2023-05-16T07:46:08;12.90;99.90
6841;DHT22;3458;53.678;14.080;2023-05-16T07:48:34;12.90;99.90
6841;DHT22;3458;53.678;14.080;2023-05-16T07:50:59;13.10;99.90
6841;DHT22;3458;53.678;14.080;2023-05-16T07:53:25;13.30;99.90
6841;DHT22;3458;53.678;14.080;2023-05-16T07:55:50;13.30;99.90
6841;DHT22;3458;53.678;14.080;2023-05-16T07:58:16;13.20;99.90
6841;DHT22;3458;53.678;14.080;2023-05-16T08:00:41;13.10;99.90
6841;DHT22;3458;53.678;14.080;2023-05-16T08:03:07;13.10;99.90
6841;DHT22;3458;53.678;14.080;2023-05-16T08:05:32;13.10;99.90
6841;DHT22;3458;53.678;14.080;2023-05-16T08:07:58;13.10;99.90
6841;DHT22;3458;53.678;14.080;2023-05-16T08:10:23;13.10;99.90
6841;DHT22;3458;53.678;14.080;2023-05-16T08:12:49;13.00;99.90
6841;DHT22;3458;53.678;14.080;2023-05-16T08:15:14;12.80;99.90
6841;DHT22;3458;53.678;14.080;2023-05-16T08:17:40;12.80;99.90
6841;DHT22;3458;53.678;14.080;2023-05-16T08:20:06;12.90;99.90
6841;DHT22;3458;53.678;14.080;2023-05-16T08:22:32;12.90;99.90
6841;DHT22;3458;53.678;14.080;2023-05-16T08:24:58;12.90;99.90
6841;DHT22;3458;53.678;14.080;2023-05-16T08:27:27;12.80;99.90
6841;DHT22;3458;53.678;14.080;2023-05-16T08:29:53;12.90;99.90
6841;DHT22;3458;53.678;14.080;2023-05-16T08:32:20;12.90;99.90
6841;DHT22;3458;53.678;14.080;2023-05-16T08:34:45;13.00;99.90
6841;DHT22;3458;53.678;14.080;2023-05-16T08:37:11;13.00;99.90
6841;DHT22;3458;53.678;14.080;2023-05-16T08:39:39;13.10;99.90
6841;DHT22;3458;53.678;14.080;2023-05-16T08:42:05;13.10;99.90
6841;DHT22;3458;53.678;14.080;2023-05-16T08:44:31;13.20;99.90
6841;DHT22;3458;53.678;14.080;2023-05-16T08:47:06;13.10;99.90
6841;DHT22;3458;53.678;14.080;2023-05-16T08:49:34;13.10;99.90
6841;DHT22;3458;53.678;14.080;2023-05-16T08:52:01;13.30;99.90
6841;DHT22;3458;53.678;14.080;2023-05-16T08:54:28;13.30;99.90
6841;DHT22;3458;53.678;14.080;2023-05-16T08:56:54;13.40;99.90
6841;DHT22;3458;53.678;14.080;2023-05-16T08:59:20;13.60;99.90
6841;DHT22;3458;53.678;14.080;2023-05-16T09:01:46;13.60;99.90
6841;DHT22;3458;53.678;14.080;2023-05-16T09:04:11;13.60;99.90
6841;DHT22;3458;53.678;14.080;2023-05-16T09:06:37;13.50;99.90
6841;DHT22;3458;53.678;14.080;2023-05-16T09:09:02;13.60;99.90
6841;DHT22;3458;53.678;14.080;2023-05-16T09:11:29;13.70;99.90
6841;DHT22;3458;53.678;14.080;2023-05-16T09:13:54;13.60;99.90
6841;DHT22;3458;53.678;14.080;2023-05-16T09:16:20;13.60;99.90
6841;DHT22;3458;53.678;14.080;2023-05-16T09:18:55;13.60;99.90
6841;DHT22;3458;53.678;14.080;2023-05-16T09:21:25;13.60;99.90
6841;DHT22;3458;53.678;14.080;2023-05-16T09:23:51;13.60;99.90
6841;DHT22;3458;53.678;14.080;2023-05-16T09:26:17;13.50;99.90
6841;DHT22;3458;53.678;14.080;2023-05-16T09:28:43;13.40;99.90
6841;DHT22;3458;53.678;14.080;2023-05-16T09:31:23;13.40;99.90
6841;DHT22;3458;53.678;14.080;2023-05-16T09:33:51;13.40;99.90
6841;DHT22;3458;53.678;14.080;2023-05-16T09:36:16;13.40;99.90
6841;DHT22;3458;53.678;14.080;2023-05-16T09:38:42;13.50;99.90
6841;DHT22;3458;53.678;14.080;2023-05-16T09:41:09;13.60;99.90
6841;DHT22;3458;53.678;14.080;2023-05-16T09:43:38;13.60;99.90
6841;DHT22;3458;53.678;14.080;2023-05-16T09:46:03;13.60;99.90
6841;DHT22;3458;53.678;14.080;2023-05-16T09:48:31;13.50;99.90
6841;DHT22;3458;53.678;14.080;2023-05-16T09:50:57;13.40;99.90
6841;DHT22;3458;53.678;14.080;2023-05-16T09:53:28;13.30;99.90
6841;DHT22;3458;53.678;14.080;2023-05-16T09:56:02;13.40;99.90
6841;DHT22;3458;53.678;14.080;2023-05-16T09:58:29;13.40;99.90
6841;DHT22;3458;53.678;14.080;2023-05-16T10:00:56;13.40;99.90
6841;DHT22;3458;53.678;14.080;2023-05-16T10:03:22;13.50;99.90
6841;DHT22;3458;53.678;14.080;2023-05-16T10:05:49;13.60;99.90
6841;DHT22;3458;53.678;14.080;2023-05-16T10:08:15;13.60;99.90
6841;DHT22;3458;53.678;14.080;2023-05-16T10:10:40;13.50;99.90
6841;DHT22;3458;53.678;14.080;2023-05-16T10:13:07;13.60;99.90
6841;DHT22;3458;53.678;14.080;2023-05-16T10:15:36;13.50;99.90
6841;DHT22;3458;53.678;14.080;2023-05-16T10:18:02;13.50;99.90
6841;DHT22;3458;53.678;14.080;2023-05-16T10:20:28;13.30;99.90
6841;DHT22;3458;53.678;14.080;2023-05-16T10:22:55;13.40;99.90
6841;DHT22;3458;53.678;14.080;2023-05-16T10:25:28;13.40;99.90
6841;DHT22;3458;53.678;14.080;2023-05-16T10:27:56;13.50;99.90
6841;DHT22;3458;53.678;14.080;2023-05-16T10:30:22;13.50;99.90
6841;DHT22;3458;53.678;14.080;2023-05-16T10:32:49;13.40;99.90
6841;DHT22;3458;53.678;14.080;2023-05-16T10:35:16;13.40;99.90
6841;DHT22;3458;53.678;14.080;2023-05-16T10:37:41;13.50;99.90
6841;DHT22;3458;53.678;14.080;2023-05-16T10:40:08;13.40;99.90
6841;DHT22;3458;53.678;14.080;2023-05-16T10:42:34;13.30;99.90
6841;DHT22;3458;53.678;14.080;2023-05-16T10:45:17;13.30;99.90
6841;DHT22;3458;53.678;14.080;2023-05-16T10:48:02;13.30;99.90
6841;DHT22;3458;53.678;14.080;2023-05-16T10:50:41;13.20;99.90
6841;DHT22;3458;53.678;14.080;2023-05-16T10:53:18;13.10;99.90
6841;DHT22;3458;53.678;14.080;2023-05-16T10:55:49;13.10;99.90
6841;DHT22;3458;53.678;14.080;2023-05-16T11:01:23;13.10;99.90
6841;DHT22;3458;53.678;14.080;2023-05-16T11:11:43;13.40;99.90
6841;DHT22;3458;53.678;14.080;2023-05-16T11:14:34;13.50;99.90
6841;DHT22;3458;53.678;14.080;2023-05-16T11:17:11;13.70;99.90
6841;DHT22;3458;53.678;14.080;2023-05-16T11:19:50;13.70;99.90
6841;DHT22;3458;53.678;14.080;2023-05-16T11:24:53;13.60;99.90
6841;DHT22;3458;53.678;14.080;2023-05-16T11:27:31;13.40;99.90
6841;DHT22;3458;53.678;14.080;2023-05-16T11:30:13;13.30;99.90
6841;DHT22;3458;53.678;14.080;2023-05-16T11:32:44;13.20;99.90
6841;DHT22;3458;53.678;14.080;2023-05-16T11:35:12;13.30;99.90
6841;DHT22;3458;53.678;14.080;2023-05-16T11:37:38;13.40;99.90
6841;DHT22;3458;53.678;14.080;2023-05-16T11:40:06;13.50;99.90
6841;DHT22;3458;53.678;14.080;2023-05-16T11:42:37;13.50;99.90
6841;DHT22;3458;53.678;14.080;2023-05-16T11:45:08;13.50;99.90
6841;DHT22;3458;53.678;14.080;2023-05-16T11:47:36;13.50;99.90
6841;DHT22;3458;53.678;14.080;2023-05-16T11:50:09;13.40;99.90
6841;DHT22;3458;53.678;14.080;2023-05-16T11:52:36;13.50;99.90
6841;DHT22;3458;53.678;14.080;2023-05-16T11:55:04;13.60;99.90
6841;DHT22;3458;53.678;14.080;2023-05-16T11:57:30;13.50;99.90
6841;DHT22;3458;53.678;14.080;2023-05-16T12:00:04;13.30;99.90
6841;DHT22;3458;53.678;14.080;2023-05-16T12:02:35;13.30;99.90
6841;DHT22;3458;53.678;14.080;2023-05-16T12:05:08;13.30;99.90
6841;DHT22;3458;53.678;14.080;2023-05-16T12:07:35;13.30;99.90
6841;DHT22;3458;53.678;14.080;2023-05-16T12:10:05;13.30;99.90
6841;DHT22;3458;53.678;14.080;2023-05-16T12:12:32;13.20;99.90
6841;DHT22;3458;53.678;14.080;2023-05-16T12:14:58;13.20;99.90
6841;DHT22;3458;53.678;14.080;2023-05-16T12:17:23;13.30;99.90
6841;DHT22;3458;53.678;14.080;2023-05-16T12:19:49;13.50;99.90
6841;DHT22;3458;53.678;14.080;2023-05-16T12:22:16;13.60;99.90
6841;DHT22;3458;53.678;14.080;2023-05-16T12:24:42;13.70;99.90
6841;DHT22;3458;53.678;14.080;2023-05-16T12:27:08;13.80;99.90
6841;DHT22;3458;53.678;14.080;2023-05-16T12:29:34;14.00;99.90
6841;DHT22;3458;53.678;14.080;2023-05-16T12:32:00;14.00;99.90
6841;DHT22;3458;53.678;14.080;2023-05-16T12:34:28;14.30;99.90
6841;DHT22;3458;53.678;14.080;2023-05-16T12:36:54;14.80;99.90
6841;DHT22;3458;53.678;14.080;2023-05-16T12:39:20;15.00;99.90
6841;DHT22;3458;53.678;14.080;2023-05-16T12:41:47;15.40;99.90
6841;DHT22;3458;53.678;14.080;2023-05-16T12:44:16;15.60;99.90
6841;DHT22;3458;53.678;14.080;2023-05-16T12:46:44;15.30;99.90
6841;DHT22;3458;53.678;14.080;2023-05-16T12:49:11;15.00;99.90
6841;DHT22;3458;53.678;14.080;2023-05-16T12:51:37;14.60;99.90
6841;DHT22;3458;53.678;14.080;2023-05-16T12:54:09;14.60;99.90
6841;DHT22;3458;53.678;14.080;2023-05-16T12:56:39;14.70;99.90
6841;DHT22;3458;53.678;14.080;2023-05-16T12:59:05;14.70;99.90
6841;DHT22;3458;53.678;14.080;2023-05-16T13:01:31;14.70;99.90
6841;DHT22;3458;53.678;14.080;2023-05-16T13:03:57;14.80;99.90
6841;DHT22;3458;53.678;14.080;2023-05-16T13:06:22;14.90;99.90
6841;DHT22;3458;53.678;14.080;2023-05-16T13:08:48;15.00;99.90
6841;DHT22;3458;53.678;14.080;2023-05-16T13:11:13;15.90;99.90
6841;DHT22;3458;53.678;14.080;2023-05-16T13:13:39;16.80;96.10
6841;DHT22;3458;53.678;14.080;2023-05-16T13:16:04;16.80;94.30
6841;DHT22;3458;53.678;14.080;2023-05-16T13:18:30;16.50;94.20
6841;DHT22;3458;53.678;14.080;2023-05-16T13:20:56;16.10;93.00
6841;DHT22;3458;53.678;14.080;2023-05-16T13:23:21;15.80;93.00
6841;DHT22;3458;53.678;14.080;2023-05-16T13:25:47;15.60;92.90
6841;DHT22;3458;53.678;14.080;2023-05-16T13:28:13;15.40;92.30
6841;DHT22;3458;53.678;14.080;2023-05-16T13:30:38;15.70;92.70
6841;DHT22;3458;53.678;14.080;2023-05-16T13:33:04;15.70;91.40
6841;DHT22;3458;53.678;14.080;2023-05-16T13:35:29;16.20;91.00
6841;DHT22;3458;53.678;14.080;2023-05-16T13:37:55;17.00;88.00
6841;DHT22;3458;53.678;14.080;2023-05-16T13:40:20;16.90;83.50
6841;DHT22;3458;53.678;14.080;2023-05-16T13:42:46;18.30;85.30
6841;DHT22;3458;53.678;14.080;2023-05-16T13:45:11;19.70;81.80
6841;DHT22;3458;53.678;14.080;2023-05-16T13:47:37;20.80;71.60
6841;DHT22;3458;53.678;14.080;2023-05-16T13:50:03;22.40;65.20
6841;DHT22;3458;53.678;14.080;2023-05-16T13:52:33;23.70;56.80
6841;DHT22;3458;53.678;14.080;2023-05-16T13:54:59;24.50;50.80
6841;DHT22;3458;53.678;14.080;2023-05-16T13:57:24;25.70;47.60
6841;DHT22;3458;53.678;14.080;2023-05-16T13:59:51;26.10;42.80
6841;DHT22;3458;53.678;14.080;2023-05-16T14:02:18;25.00;43.00
6841;DHT22;3458;53.678;14.080;2023-05-16T14:04:43;24.20;42.10
6841;DHT22;3458;53.678;14.080;2023-05-16T14:09:35;22.70;42.50
6841;DHT22;3458;53.678;14.080;2023-05-16T14:12:06;20.90;45.40
6841;DHT22;3458;53.678;14.080;2023-05-16T14:14:33;22.20;45.50
6841;DHT22;3458;53.678;14.080;2023-05-16T14:16:58;21.80;43.80
6841;DHT22;3458;53.678;14.080;2023-05-16T14:19:24;20.60;44.70
6841;DHT22;3458;53.678;14.080;2023-05-16T14:21:50;19.70;46.90
6841;DHT22;3458;53.678;14.080;2023-05-16T14:24:15;19.00;47.90
6841;DHT22;3458;53.678;14.080;2023-05-16T14:26:41;19.50;48.50
6841;DHT22;3458;53.678;14.080;2023-05-16T14:29:06;20.00;47.10
6841;DHT22;3458;53.678;14.080;2023-05-16T14:31:32;20.30;47.40
6841;DHT22;3458;53.678;14.080;2023-05-16T14:33:57;21.30;44.90
6841;DHT22;3458;53.678;14.080;2023-05-16T14:36:23;22.70;43.40
6841;DHT22;3458;53.678;14.080;2023-05-16T14:38:49;22.00;40.70
6841;DHT22;3458;53.678;14.080;2023-05-16T14:41:15;20.90;41.50
6841;DHT22;3458;53.678;14.080;2023-05-16T14:43:40;20.70;41.80
6841;DHT22;3458;53.678;14.080;2023-05-16T14:46:06;22.90;40.70
6841;DHT22;3458;53.678;14.080;2023-05-16T14:48:31;24.60;37.30
6841;DHT22;3458;53.678;14.080;2023-05-16T14:50:57;23.30;36.50
6841;DHT22;3458;53.678;14.080;2023-05-16T14:53:23;21.20;38.90
6841;DHT22;3458;53.678;14.080;2023-05-16T14:55:48;20.50;41.80
6841;DHT22;3458;53.678;14.080;2023-05-16T14:58:14;19.70;42.40
6841;DHT22;3458;53.678;14.080;2023-05-16T15:00:40;18.80;43.60
6841;DHT22;3458;53.678;14.080;2023-05-16T15:03:06;18.20;45.00
6841;DHT22;3458;53.678;14.080;2023-05-16T15:05:31;17.80;45.60
6841;DHT22;3458;53.678;14.080;2023-05-16T15:07:57;18.10;45.70
6841;DHT22;3458;53.678;14.080;2023-05-16T15:10:23;18.20;44.90
6841;DHT22;3458;53.678;14.080;2023-05-16T15:12:48;19.40;45.50
6841;DHT22;3458;53.678;14.080;2023-05-16T15:15:14;21.20;40.80
6841;DHT22;3458;53.678;14.080;2023-05-16T15:17:40;22.10;41.00
6841;DHT22;3458;53.678;14.080;2023-05-16T15:20:07;21.70;40.10
6841;DHT22;3458;53.678;14.080;2023-05-16T15:22:34;22.40;39.00
6841;DHT22;3458;53.678;14.080;2023-05-16T15:25:00;21.40;37.50
6841;DHT22;3458;53.678;14.080;2023-05-16T15:27:25;20.50;38.90
6841;DHT22;3458;53.678;14.080;2023-05-16T15:29:51;19.70;39.20
6841;DHT22;3458;53.678;14.080;2023-05-16T15:32:16;19.80;39.70
6841;DHT22;3458;53.678;14.080;2023-05-16T15:34:42;19.20;39.50
6841;DHT22;3458;53.678;14.080;2023-05-16T15:37:08;18.80;40.70
6841;DHT22;3458;53.678;14.080;2023-05-16T15:39:34;20.40;41.10
6841;DHT22;3458;53.678;14.080;2023-05-16T15:42:00;22.20;37.20
6841;DHT22;3458;53.678;14.080;2023-05-16T15:44:28;21.30;37.20
6841;DHT22;3458;53.678;14.080;2023-05-16T15:46:54;22.90;37.30
6841;DHT22;3458;53.678;14.080;2023-05-16T15:49:19;25.10;35.10
6841;DHT22;3458;53.678;14.080;2023-05-16T15:51:46;26.10;32.60
6841;DHT22;3458;53.678;14.080;2023-05-16T15:54:11;26.30;32.10
6841;DHT22;3458;53.678;14.080;2023-05-16T15:56:37;27.10;31.40
6841;DHT22;3458;53.678;14.080;2023-05-16T15:59:02;25.60;30.30
6841;DHT22;3458;53.678;14.080;2023-05-16T16:01:28;25.50;31.10
6841;DHT22;3458;53.678;14.080;2023-05-16T16:03:53;25.70;30.30
6841;DHT22;3458;53.678;14.080;2023-05-16T16:06:20;25.10;30.60
6841;DHT22;3458;53.678;14.080;2023-05-16T16:08:45;23.50;32.10